CCA1759 ZSHC-ZUCK
Flight info
| Callsign | CCA1759 |
|---|---|
| Flight time | 2h 15m |
| Altitude | 30100 |
| Route | NIVIK5E NIVIK W135 DOGVI W545 VEMEX W73 MADUK W51 LEGIV W164 ADGOL W50 XSH W80 IRPOG IRPOG1J |
| Aircraft | A321/M-SDE3FGHIRWY/LB1 |
Departure
| Time | 2026-04-28 09:51 |
|---|---|
| Airport | Hangzhou Xiaoshan International Airport (ZSHC) |
Arrival
| Time | 2026-04-28 12:06 |
|---|---|
| Airport | Chongqing Jiangbei International Airport (ZUCK) |
| Time | Latitude | Longitude | Altitude | Speed | Heading |
|---|---|---|---|---|---|
| 2026-04-28 09:46 | 30.24130 | 120.41962 | 32 ft | 11 kts | 243° |
| 2026-04-28 09:47 | 30.24095 | 120.41884 | 32 ft | 12 kts | 243° |
| 2026-04-28 09:47 | 30.24054 | 120.41791 | 32 ft | 14 kts | 243° |
| 2026-04-28 09:47 | 30.24009 | 120.41690 | 32 ft | 15 kts | 243° |
| 2026-04-28 09:47 | 30.23959 | 120.41577 | 32 ft | 16 kts | 242° |
| 2026-04-28 09:48 | 30.23905 | 120.41454 | 32 ft | 18 kts | 243° |
| 2026-04-28 09:48 | 30.23851 | 120.41332 | 32 ft | 17 kts | 243° |
| 2026-04-28 09:48 | 30.23794 | 120.41204 | 32 ft | 18 kts | 243° |
| 2026-04-28 09:48 | 30.23734 | 120.41067 | 32 ft | 20 kts | 243° |
| 2026-04-28 09:49 | 30.23690 | 120.40968 | 32 ft | 8 kts | 246° |
| 2026-04-28 09:49 | 30.23709 | 120.40912 | 33 ft | 8 kts | 327° |
| 2026-04-28 09:49 | 30.23764 | 120.40880 | 33 ft | 9 kts | 333° |
| 2026-04-28 09:49 | 30.23817 | 120.40856 | 34 ft | 7 kts | 1° |
| 2026-04-28 09:50 | 30.23851 | 120.40898 | 34 ft | 9 kts | 63° |
| 2026-04-28 09:50 | 30.23946 | 120.41114 | 33 ft | 65 kts | 63° |
| 2026-04-28 09:50 | 30.24249 | 120.41799 | 32 ft | 123 kts | 63° |
| 2026-04-28 09:50 | 30.24714 | 120.42842 | 52 ft | 164 kts | 60° |
| 2026-04-28 09:51 | 30.25229 | 120.44005 | 635 ft | 162 kts | 60° |
| 2026-04-28 09:51 | 30.25740 | 120.45161 | 1283 ft | 161 kts | 61° |
| 2026-04-28 09:51 | 30.26245 | 120.46304 | 1915 ft | 159 kts | 61° |
| 2026-04-28 09:51 | 30.26748 | 120.47438 | 2472 ft | 158 kts | 62° |
| 2026-04-28 09:52 | 30.27248 | 120.48566 | 3001 ft | 157 kts | 63° |
| 2026-04-28 09:52 | 30.27756 | 120.49717 | 3337 ft | 170 kts | 64° |
| 2026-04-28 09:52 | 30.28327 | 120.51009 | 3539 ft | 189 kts | 64° |
| 2026-04-28 09:52 | 30.28942 | 120.52400 | 4037 ft | 197 kts | 64° |
| 2026-04-28 09:53 | 30.29569 | 120.53816 | 4757 ft | 198 kts | 66° |
| 2026-04-28 09:53 | 30.30202 | 120.55249 | 5415 ft | 203 kts | 66° |
| 2026-04-28 09:53 | 30.30857 | 120.56738 | 5943 ft | 213 kts | 68° |
| 2026-04-28 09:53 | 30.31542 | 120.58296 | 6482 ft | 222 kts | 68° |
| 2026-04-28 09:54 | 30.32278 | 120.59907 | 6978 ft | 232 kts | 60° |
| 2026-04-28 09:54 | 30.33458 | 120.61227 | 7481 ft | 245 kts | 31° |
| 2026-04-28 09:54 | 30.35102 | 120.61801 | 8067 ft | 251 kts | 0° |
| 2026-04-28 09:54 | 30.36802 | 120.61428 | 8725 ft | 250 kts | 330° |
| 2026-04-28 09:55 | 30.38140 | 120.60217 | 9416 ft | 242 kts | 301° |
| 2026-04-28 09:55 | 30.38850 | 120.58507 | 10108 ft | 233 kts | 275° |
| 2026-04-28 09:55 | 30.38856 | 120.56699 | 10771 ft | 226 kts | 253° |
| 2026-04-28 09:55 | 30.38257 | 120.55038 | 11429 ft | 224 kts | 240° |
| 2026-04-28 09:56 | 30.37530 | 120.53439 | 12100 ft | 225 kts | 241° |
| 2026-04-28 09:56 | 30.36786 | 120.51790 | 12461 ft | 242 kts | 242° |
| 2026-04-28 09:56 | 30.35972 | 120.49979 | 12627 ft | 265 kts | 242° |
| 2026-04-28 09:56 | 30.35096 | 120.48028 | 13011 ft | 277 kts | 242° |
| 2026-04-28 09:57 | 30.34206 | 120.46041 | 13746 ft | 278 kts | 243° |
| 2026-04-28 09:57 | 30.33328 | 120.44056 | 14432 ft | 279 kts | 243° |
| 2026-04-28 09:57 | 30.32441 | 120.42041 | 14994 ft | 283 kts | 243° |
| 2026-04-28 09:57 | 30.31541 | 120.40002 | 15572 ft | 287 kts | 243° |
| 2026-04-28 09:58 | 30.30628 | 120.37939 | 16191 ft | 289 kts | 243° |
| 2026-04-28 09:58 | 30.29706 | 120.35858 | 16768 ft | 292 kts | 243° |
| 2026-04-28 09:58 | 30.28773 | 120.33756 | 17361 ft | 295 kts | 243° |
| 2026-04-28 09:58 | 30.27831 | 120.31632 | 17953 ft | 298 kts | 243° |
| 2026-04-28 09:59 | 30.27027 | 120.29421 | 18486 ft | 302 kts | 258° |
| 2026-04-28 09:59 | 30.27161 | 120.26984 | 18944 ft | 313 kts | 286° |
| 2026-04-28 09:59 | 30.28376 | 120.24857 | 19407 ft | 329 kts | 312° |
| 2026-04-28 09:59 | 30.30252 | 120.23276 | 19725 ft | 339 kts | 323° |
| 2026-04-28 10:00 | 30.32360 | 120.22019 | 19785 ft | 343 kts | 330° |
| 2026-04-28 10:00 | 30.34645 | 120.20951 | 19818 ft | 365 kts | 334° |
| 2026-04-28 10:00 | 30.37103 | 120.19926 | 19818 ft | 385 kts | 335° |
| 2026-04-28 10:00 | 30.39666 | 120.18851 | 19925 ft | 398 kts | 334° |
| 2026-04-28 10:01 | 30.42287 | 120.17690 | 20042 ft | 410 kts | 333° |
| 2026-04-28 10:01 | 30.44960 | 120.16429 | 20278 ft | 417 kts | 332° |
| 2026-04-28 10:01 | 30.47621 | 120.15069 | 20696 ft | 417 kts | 327° |
| 2026-04-28 10:01 | 30.50043 | 120.13289 | 21118 ft | 412 kts | 317° |
| 2026-04-28 10:02 | 30.52345 | 120.11278 | 21545 ft | 415 kts | 317° |
| 2026-04-28 10:02 | 30.54669 | 120.09275 | 21937 ft | 418 kts | 318° |
| 2026-04-28 10:02 | 30.57031 | 120.07265 | 22330 ft | 422 kts | 318° |
| 2026-04-28 10:02 | 30.59409 | 120.05259 | 22723 ft | 425 kts | 319° |
| 2026-04-28 10:03 | 30.61813 | 120.03241 | 23121 ft | 427 kts | 319° |
| 2026-04-28 10:03 | 30.64228 | 120.01213 | 23498 ft | 430 kts | 319° |
| 2026-04-28 10:03 | 30.66657 | 119.99171 | 23840 ft | 432 kts | 319° |
| 2026-04-28 10:03 | 30.69091 | 119.97117 | 24154 ft | 434 kts | 319° |
| 2026-04-28 10:04 | 30.71535 | 119.95042 | 24488 ft | 436 kts | 319° |
| 2026-04-28 10:04 | 30.73983 | 119.92957 | 24828 ft | 437 kts | 318° |
| 2026-04-28 10:04 | 30.76445 | 119.90860 | 25157 ft | 439 kts | 318° |
| 2026-04-28 10:04 | 30.78909 | 119.88759 | 25513 ft | 440 kts | 318° |
| 2026-04-28 10:05 | 30.81378 | 119.86644 | 25846 ft | 442 kts | 318° |
| 2026-04-28 10:05 | 30.83853 | 119.84513 | 26172 ft | 444 kts | 317° |
| 2026-04-28 10:05 | 30.86306 | 119.82398 | 26505 ft | 445 kts | 317° |
| 2026-04-28 10:05 | 30.88827 | 119.80223 | 26881 ft | 445 kts | 317° |
| 2026-04-28 10:06 | 30.91285 | 119.78103 | 27228 ft | 446 kts | 317° |
| 2026-04-28 10:06 | 30.93788 | 119.75950 | 27529 ft | 448 kts | 317° |
| 2026-04-28 10:06 | 30.96301 | 119.73791 | 27821 ft | 450 kts | 317° |
| 2026-04-28 10:06 | 30.98825 | 119.71619 | 28111 ft | 452 kts | 317° |
| 2026-04-28 10:07 | 31.01360 | 119.69432 | 28418 ft | 454 kts | 317° |
| 2026-04-28 10:07 | 31.03907 | 119.67235 | 28701 ft | 456 kts | 317° |
| 2026-04-28 10:07 | 31.06459 | 119.65031 | 28975 ft | 458 kts | 317° |
| 2026-04-28 10:07 | 31.09025 | 119.62813 | 29298 ft | 458 kts | 317° |
| 2026-04-28 10:08 | 31.11581 | 119.60603 | 29739 ft | 456 kts | 317° |
| 2026-04-28 10:08 | 31.14127 | 119.58401 | 30123 ft | 456 kts | 317° |
| 2026-04-28 10:08 | 31.19164 | 119.54039 | 30237 ft | 443 kts | 317° |
| 2026-04-28 10:09 | 31.24073 | 119.49776 | 30239 ft | 437 kts | 317° |
| 2026-04-28 10:09 | 31.28949 | 119.45537 | 30239 ft | 437 kts | 317° |
| 2026-04-28 10:10 | 31.33825 | 119.41303 | 30241 ft | 437 kts | 317° |
| 2026-04-28 10:10 | 31.38703 | 119.37062 | 30278 ft | 437 kts | 316° |
| 2026-04-28 10:11 | 31.43570 | 119.32816 | 30273 ft | 435 kts | 316° |
| 2026-04-28 10:11 | 31.48420 | 119.28595 | 30271 ft | 434 kts | 316° |
| 2026-04-28 10:12 | 31.53256 | 119.24363 | 30275 ft | 433 kts | 316° |
| 2026-04-28 10:12 | 31.58064 | 119.20124 | 30275 ft | 432 kts | 316° |
| 2026-04-28 10:13 | 31.62849 | 119.15870 | 30274 ft | 431 kts | 315° |
| 2026-04-28 10:13 | 31.67528 | 119.11498 | 30270 ft | 428 kts | 312° |
| 2026-04-28 10:14 | 31.71966 | 119.06877 | 30287 ft | 426 kts | 310° |
| 2026-04-28 10:14 | 31.76373 | 119.02225 | 30263 ft | 426 kts | 311° |
| 2026-04-28 10:15 | 31.80586 | 118.97408 | 30255 ft | 416 kts | 301° |
| 2026-04-28 10:15 | 31.83199 | 118.91573 | 30258 ft | 401 kts | 282° |
| 2026-04-28 10:16 | 31.84352 | 118.85187 | 30249 ft | 394 kts | 270° |
| 2026-04-28 10:16 | 31.83970 | 118.78852 | 30242 ft | 391 kts | 262° |
| 2026-04-28 10:17 | 31.83399 | 118.72492 | 30236 ft | 391 kts | 262° |
| 2026-04-28 10:17 | 31.82828 | 118.66121 | 30240 ft | 392 kts | 262° |
| 2026-04-28 10:18 | 31.82249 | 118.59751 | 30248 ft | 392 kts | 262° |
| 2026-04-28 10:18 | 31.81661 | 118.53370 | 30222 ft | 393 kts | 262° |
| 2026-04-28 10:19 | 31.81071 | 118.46976 | 30224 ft | 394 kts | 262° |
| 2026-04-28 10:19 | 31.80482 | 118.40572 | 30246 ft | 394 kts | 262° |
| 2026-04-28 10:20 | 31.79882 | 118.34160 | 30253 ft | 394 kts | 262° |
| 2026-04-28 10:20 | 31.78660 | 118.27931 | 30254 ft | 392 kts | 246° |
| 2026-04-28 10:21 | 31.76377 | 118.22111 | 30250 ft | 392 kts | 246° |
| 2026-04-28 10:21 | 31.74097 | 118.16291 | 30250 ft | 392 kts | 246° |
| 2026-04-28 10:22 | 31.71878 | 118.10449 | 30233 ft | 392 kts | 251° |
| 2026-04-28 10:22 | 31.70546 | 118.04295 | 30210 ft | 392 kts | 255° |
| 2026-04-28 10:23 | 31.69479 | 117.99080 | 30228 ft | 392 kts | 255° |
| 2026-04-28 10:23 | 31.68197 | 117.92851 | 30224 ft | 393 kts | 255° |
| 2026-04-28 10:24 | 31.66911 | 117.86619 | 30229 ft | 393 kts | 255° |
| 2026-04-28 10:24 | 31.65396 | 117.79332 | 30231 ft | 393 kts | 255° |
| 2026-04-28 10:25 | 31.64311 | 117.74153 | 30229 ft | 393 kts | 255° |
| 2026-04-28 10:25 | 31.63006 | 117.67920 | 30227 ft | 393 kts | 255° |
| 2026-04-28 10:26 | 31.61704 | 117.61684 | 30227 ft | 394 kts | 255° |
| 2026-04-28 10:26 | 31.60412 | 117.55450 | 30230 ft | 394 kts | 256° |
| 2026-04-28 10:27 | 31.59285 | 117.49203 | 30212 ft | 394 kts | 257° |
| 2026-04-28 10:27 | 31.58210 | 117.42889 | 30225 ft | 395 kts | 257° |
| 2026-04-28 10:28 | 31.57110 | 117.36576 | 30229 ft | 395 kts | 256° |
| 2026-04-28 10:29 | 31.55426 | 117.27123 | 30237 ft | 395 kts | 256° |
| 2026-04-28 10:29 | 31.54308 | 117.20816 | 30239 ft | 395 kts | 257° |
| 2026-04-28 10:30 | 31.53198 | 117.14514 | 30237 ft | 395 kts | 256° |
| 2026-04-28 10:30 | 31.52088 | 117.08225 | 30243 ft | 394 kts | 256° |
| 2026-04-28 10:31 | 31.50968 | 117.01938 | 30244 ft | 394 kts | 256° |
| 2026-04-28 10:31 | 31.49840 | 116.95654 | 30247 ft | 394 kts | 256° |
| 2026-04-28 10:32 | 31.48710 | 116.89378 | 30244 ft | 394 kts | 256° |
| 2026-04-28 10:32 | 31.46931 | 116.83358 | 30229 ft | 393 kts | 240° |
| 2026-04-28 10:33 | 31.43708 | 116.78176 | 30231 ft | 395 kts | 234° |
| 2026-04-28 10:33 | 31.40365 | 116.73068 | 30236 ft | 395 kts | 234° |
| 2026-04-28 10:34 | 31.37022 | 116.67953 | 30236 ft | 396 kts | 234° |
| 2026-04-28 10:34 | 31.33677 | 116.62836 | 30240 ft | 396 kts | 234° |
| 2026-04-28 10:35 | 31.30326 | 116.57729 | 30215 ft | 396 kts | 233° |
| 2026-04-28 10:35 | 31.26960 | 116.52612 | 30216 ft | 398 kts | 233° |
| 2026-04-28 10:36 | 31.23577 | 116.47468 | 30225 ft | 400 kts | 233° |
| 2026-04-28 10:36 | 31.20187 | 116.42318 | 30215 ft | 400 kts | 233° |
| 2026-04-28 10:37 | 31.16784 | 116.37154 | 30217 ft | 401 kts | 233° |
| 2026-04-28 10:37 | 31.13377 | 116.31996 | 30207 ft | 401 kts | 233° |
| 2026-04-28 10:38 | 31.09968 | 116.26842 | 30217 ft | 401 kts | 233° |
| 2026-04-28 10:38 | 31.06563 | 116.21692 | 30211 ft | 400 kts | 233° |
| 2026-04-28 10:39 | 31.03167 | 116.16551 | 30219 ft | 400 kts | 233° |
| 2026-04-28 10:39 | 30.99769 | 116.11433 | 30210 ft | 399 kts | 233° |
| 2026-04-28 10:40 | 30.96370 | 116.06322 | 30211 ft | 398 kts | 233° |
| 2026-04-28 10:40 | 30.92978 | 116.01226 | 30187 ft | 398 kts | 233° |
| 2026-04-28 10:41 | 30.89580 | 115.96119 | 30151 ft | 400 kts | 233° |
| 2026-04-28 10:41 | 30.86156 | 115.90992 | 30162 ft | 401 kts | 233° |
| 2026-04-28 10:42 | 30.82742 | 115.85855 | 30150 ft | 401 kts | 233° |
| 2026-04-28 10:42 | 30.79348 | 115.80696 | 30154 ft | 401 kts | 233° |
| 2026-04-28 10:43 | 30.75987 | 115.75567 | 30144 ft | 401 kts | 233° |
| 2026-04-28 10:43 | 30.72600 | 115.70420 | 30116 ft | 401 kts | 233° |
| 2026-04-28 10:44 | 30.69185 | 115.65264 | 30110 ft | 404 kts | 233° |
| 2026-04-28 10:44 | 30.65761 | 115.60084 | 30128 ft | 404 kts | 233° |
| 2026-04-28 10:45 | 30.62344 | 115.54916 | 30137 ft | 403 kts | 233° |
| 2026-04-28 10:45 | 30.58922 | 115.49755 | 30135 ft | 403 kts | 233° |
| 2026-04-28 10:46 | 30.55499 | 115.44610 | 30133 ft | 403 kts | 233° |
| 2026-04-28 10:46 | 30.52074 | 115.39465 | 30107 ft | 403 kts | 233° |
| 2026-04-28 10:47 | 30.48641 | 115.34306 | 30110 ft | 405 kts | 233° |
| 2026-04-28 10:47 | 30.45501 | 115.28899 | 30113 ft | 405 kts | 245° |
| 2026-04-28 10:48 | 30.44211 | 115.22568 | 30122 ft | 410 kts | 266° |
| 2026-04-28 10:48 | 30.44764 | 115.15954 | 30122 ft | 413 kts | 273° |
| 2026-04-28 10:49 | 30.45454 | 115.09349 | 30122 ft | 413 kts | 273° |
| 2026-04-28 10:49 | 30.46125 | 115.02750 | 30122 ft | 412 kts | 272° |
| 2026-04-28 10:50 | 30.46787 | 114.96136 | 30119 ft | 413 kts | 272° |
| 2026-04-28 10:50 | 30.47452 | 114.89519 | 30113 ft | 414 kts | 272° |
| 2026-04-28 10:51 | 30.48118 | 114.82924 | 30117 ft | 415 kts | 272° |
| 2026-04-28 10:51 | 30.48785 | 114.76229 | 30118 ft | 415 kts | 272° |
| 2026-04-28 10:52 | 30.49441 | 114.69619 | 30121 ft | 416 kts | 272° |
| 2026-04-28 10:52 | 30.50112 | 114.62956 | 30119 ft | 416 kts | 272° |
| 2026-04-28 10:53 | 30.50768 | 114.56288 | 30119 ft | 416 kts | 272° |
| 2026-04-28 10:53 | 30.51412 | 114.49611 | 30117 ft | 417 kts | 272° |
| 2026-04-28 10:54 | 30.52059 | 114.42931 | 30115 ft | 417 kts | 272° |
| 2026-04-28 10:54 | 30.52710 | 114.36251 | 30140 ft | 417 kts | 271° |
| 2026-04-28 10:55 | 30.53357 | 114.29571 | 30145 ft | 417 kts | 271° |
| 2026-04-28 10:55 | 30.53998 | 114.22895 | 30147 ft | 417 kts | 271° |
| 2026-04-28 10:56 | 30.54631 | 114.16212 | 30144 ft | 416 kts | 271° |
| 2026-04-28 10:56 | 30.55254 | 114.09541 | 30124 ft | 416 kts | 271° |
| 2026-04-28 10:57 | 30.55903 | 114.02858 | 30133 ft | 417 kts | 271° |
| 2026-04-28 10:57 | 30.56545 | 113.96198 | 30134 ft | 417 kts | 271° |
| 2026-04-28 10:58 | 30.57161 | 113.89518 | 30131 ft | 416 kts | 271° |
| 2026-04-28 10:58 | 30.57693 | 113.82842 | 30134 ft | 413 kts | 266° |
| 2026-04-28 10:59 | 30.57474 | 113.76211 | 30133 ft | 411 kts | 263° |
| 2026-04-28 10:59 | 30.57232 | 113.69585 | 30144 ft | 410 kts | 263° |
| 2026-04-28 11:00 | 30.56984 | 113.62989 | 30150 ft | 409 kts | 263° |
| 2026-04-28 11:00 | 30.56726 | 113.56407 | 30159 ft | 408 kts | 263° |
| 2026-04-28 11:01 | 30.56471 | 113.49836 | 30158 ft | 408 kts | 263° |
| 2026-04-28 11:01 | 30.56220 | 113.43265 | 30156 ft | 407 kts | 263° |
| 2026-04-28 11:02 | 30.55965 | 113.36697 | 30165 ft | 407 kts | 263° |
| 2026-04-28 11:02 | 30.55706 | 113.30146 | 30162 ft | 407 kts | 263° |
| 2026-04-28 11:03 | 30.55443 | 113.23637 | 30153 ft | 406 kts | 263° |
| 2026-04-28 11:03 | 30.55165 | 113.17099 | 30150 ft | 406 kts | 263° |
| 2026-04-28 11:04 | 30.54893 | 113.10560 | 30158 ft | 406 kts | 263° |
| 2026-04-28 11:04 | 30.54631 | 113.04015 | 30161 ft | 406 kts | 263° |
| 2026-04-28 11:05 | 30.54352 | 112.97479 | 30172 ft | 406 kts | 263° |
| 2026-04-28 11:05 | 30.54072 | 112.90952 | 30171 ft | 405 kts | 263° |
| 2026-04-28 11:06 | 30.53794 | 112.84430 | 30168 ft | 405 kts | 263° |
| 2026-04-28 11:06 | 30.53511 | 112.77904 | 30153 ft | 405 kts | 263° |
| 2026-04-28 11:07 | 30.53221 | 112.71382 | 30155 ft | 405 kts | 263° |
| 2026-04-28 11:07 | 30.52932 | 112.64862 | 30154 ft | 405 kts | 263° |
| 2026-04-28 11:08 | 30.52641 | 112.58336 | 30160 ft | 405 kts | 263° |
| 2026-04-28 11:08 | 30.52347 | 112.51812 | 30160 ft | 405 kts | 263° |
| 2026-04-28 11:09 | 30.52040 | 112.45294 | 30179 ft | 405 kts | 263° |
| 2026-04-28 11:09 | 30.51736 | 112.38810 | 30167 ft | 406 kts | 264° |
| 2026-04-28 11:10 | 30.51435 | 112.32269 | 30166 ft | 406 kts | 264° |
| 2026-04-28 11:10 | 30.51126 | 112.25721 | 30167 ft | 406 kts | 263° |
| 2026-04-28 11:11 | 30.50857 | 112.20239 | 30168 ft | 407 kts | 263° |
| 2026-04-28 11:11 | 30.50536 | 112.13738 | 30173 ft | 407 kts | 263° |
| 2026-04-28 11:12 | 30.50215 | 112.07185 | 30175 ft | 407 kts | 264° |
| 2026-04-28 11:12 | 30.49894 | 112.00620 | 30174 ft | 408 kts | 264° |
| 2026-04-28 11:13 | 30.49565 | 111.94057 | 30180 ft | 408 kts | 264° |
| 2026-04-28 11:13 | 30.49230 | 111.87480 | 30179 ft | 408 kts | 264° |
| 2026-04-28 11:14 | 30.48890 | 111.80910 | 30178 ft | 408 kts | 264° |
| 2026-04-28 11:14 | 30.48556 | 111.74337 | 30192 ft | 409 kts | 264° |
| 2026-04-28 11:15 | 30.48218 | 111.67763 | 30192 ft | 409 kts | 264° |
| 2026-04-28 11:15 | 30.47870 | 111.61182 | 30175 ft | 409 kts | 264° |
| 2026-04-28 11:16 | 30.47506 | 111.54600 | 30176 ft | 409 kts | 264° |
| 2026-04-28 11:16 | 30.47098 | 111.48014 | 30184 ft | 408 kts | 260° |
| 2026-04-28 11:17 | 30.46210 | 111.41516 | 30184 ft | 408 kts | 259° |
| 2026-04-28 11:17 | 30.45315 | 111.35018 | 30188 ft | 408 kts | 259° |
| 2026-04-28 11:18 | 30.44423 | 111.28514 | 30192 ft | 408 kts | 259° |
| 2026-04-28 11:18 | 30.43522 | 111.22021 | 30196 ft | 408 kts | 259° |
| 2026-04-28 11:19 | 30.42622 | 111.15522 | 30201 ft | 408 kts | 259° |
| 2026-04-28 11:19 | 30.41712 | 111.09024 | 30202 ft | 409 kts | 259° |
| 2026-04-28 11:20 | 30.40801 | 111.02520 | 30200 ft | 410 kts | 259° |
| 2026-04-28 11:20 | 30.39878 | 110.96002 | 30205 ft | 410 kts | 259° |
| 2026-04-28 11:21 | 30.38947 | 110.89483 | 30209 ft | 410 kts | 259° |
| 2026-04-28 11:21 | 30.38018 | 110.82962 | 30212 ft | 410 kts | 259° |
| 2026-04-28 11:22 | 30.37086 | 110.76439 | 30210 ft | 411 kts | 259° |
| 2026-04-28 11:22 | 30.36148 | 110.69899 | 30195 ft | 412 kts | 259° |
| 2026-04-28 11:23 | 30.35209 | 110.63359 | 30209 ft | 412 kts | 259° |
| 2026-04-28 11:23 | 30.34273 | 110.56811 | 30199 ft | 412 kts | 259° |
| 2026-04-28 11:24 | 30.33323 | 110.50258 | 30205 ft | 413 kts | 259° |
| 2026-04-28 11:24 | 30.32368 | 110.43740 | 30200 ft | 414 kts | 258° |
| 2026-04-28 11:25 | 30.31411 | 110.37165 | 30192 ft | 415 kts | 258° |
| 2026-04-28 11:25 | 30.30454 | 110.30579 | 30190 ft | 416 kts | 258° |
| 2026-04-28 11:26 | 30.29480 | 110.23932 | 30195 ft | 416 kts | 258° |
| 2026-04-28 11:26 | 30.28516 | 110.17373 | 30190 ft | 416 kts | 258° |
| 2026-04-28 11:27 | 30.27536 | 110.10768 | 30197 ft | 417 kts | 258° |
| 2026-04-28 11:27 | 30.26548 | 110.04158 | 30186 ft | 417 kts | 258° |
| 2026-04-28 11:28 | 30.25567 | 109.97536 | 30191 ft | 418 kts | 258° |
| 2026-04-28 11:28 | 30.24583 | 109.90921 | 30188 ft | 417 kts | 258° |
| 2026-04-28 11:29 | 30.23580 | 109.84311 | 30175 ft | 418 kts | 258° |
| 2026-04-28 11:29 | 30.22573 | 109.77694 | 30181 ft | 418 kts | 258° |
| 2026-04-28 11:30 | 30.21572 | 109.71072 | 30182 ft | 418 kts | 258° |
| 2026-04-28 11:30 | 30.20067 | 109.61157 | 30180 ft | 417 kts | 257° |
| 2026-04-28 11:31 | 30.18460 | 109.54736 | 30183 ft | 416 kts | 251° |
| 2026-04-28 11:31 | 30.16763 | 109.48349 | 30182 ft | 416 kts | 251° |
| 2026-04-28 11:32 | 30.15060 | 109.41960 | 30192 ft | 416 kts | 251° |
| 2026-04-28 11:32 | 30.13354 | 109.35580 | 30189 ft | 416 kts | 252° |
| 2026-04-28 11:33 | 30.11655 | 109.29198 | 30188 ft | 416 kts | 252° |
| 2026-04-28 11:33 | 30.09954 | 109.22817 | 30192 ft | 416 kts | 252° |
| 2026-04-28 11:34 | 30.08241 | 109.16437 | 30179 ft | 416 kts | 251° |
| 2026-04-28 11:34 | 30.06523 | 109.10061 | 30193 ft | 416 kts | 251° |
| 2026-04-28 11:35 | 30.04810 | 109.03691 | 30197 ft | 415 kts | 251° |
| 2026-04-28 11:35 | 30.03098 | 108.97326 | 29891 ft | 415 kts | 251° |
| 2026-04-28 11:36 | 30.02245 | 108.94152 | 29350 ft | 412 kts | 252° |
| 2026-04-28 11:36 | 30.01415 | 108.91014 | 28815 ft | 406 kts | 252° |
| 2026-04-28 11:36 | 30.00605 | 108.87915 | 28299 ft | 400 kts | 252° |
| 2026-04-28 11:36 | 29.99808 | 108.84861 | 27791 ft | 395 kts | 252° |
| 2026-04-28 11:37 | 29.99017 | 108.81841 | 27293 ft | 391 kts | 252° |
| 2026-04-28 11:37 | 29.98229 | 108.78851 | 26803 ft | 388 kts | 252° |
| 2026-04-28 11:37 | 29.97446 | 108.75883 | 26336 ft | 385 kts | 252° |
| 2026-04-28 11:37 | 29.96668 | 108.72937 | 25858 ft | 383 kts | 252° |
| 2026-04-28 11:38 | 29.95895 | 108.70011 | 25389 ft | 380 kts | 252° |
| 2026-04-28 11:38 | 29.95129 | 108.67111 | 24930 ft | 377 kts | 252° |
| 2026-04-28 11:38 | 29.94366 | 108.64235 | 24479 ft | 374 kts | 252° |
| 2026-04-28 11:38 | 29.93606 | 108.61375 | 24040 ft | 372 kts | 252° |
| 2026-04-28 11:39 | 29.92847 | 108.58524 | 23588 ft | 370 kts | 252° |
| 2026-04-28 11:39 | 29.92097 | 108.55700 | 23057 ft | 368 kts | 252° |
| 2026-04-28 11:39 | 29.91351 | 108.52892 | 22536 ft | 365 kts | 252° |
| 2026-04-28 11:39 | 29.90609 | 108.50101 | 22032 ft | 362 kts | 252° |
| 2026-04-28 11:40 | 29.89873 | 108.47340 | 21536 ft | 360 kts | 252° |
| 2026-04-28 11:40 | 29.89141 | 108.44594 | 21044 ft | 357 kts | 252° |
| 2026-04-28 11:40 | 29.88415 | 108.41875 | 20563 ft | 354 kts | 252° |
| 2026-04-28 11:40 | 29.87692 | 108.39173 | 20082 ft | 352 kts | 252° |
| 2026-04-28 11:41 | 29.86973 | 108.36483 | 19619 ft | 350 kts | 252° |
| 2026-04-28 11:41 | 29.86260 | 108.33817 | 19156 ft | 348 kts | 252° |
| 2026-04-28 11:41 | 29.85550 | 108.31162 | 18703 ft | 346 kts | 252° |
| 2026-04-28 11:41 | 29.84843 | 108.28525 | 18240 ft | 344 kts | 252° |
| 2026-04-28 11:42 | 29.84139 | 108.25901 | 17717 ft | 342 kts | 252° |
| 2026-04-28 11:42 | 29.83437 | 108.23292 | 17203 ft | 341 kts | 252° |
| 2026-04-28 11:42 | 29.82738 | 108.20694 | 16758 ft | 337 kts | 252° |
| 2026-04-28 11:42 | 29.82044 | 108.18114 | 16513 ft | 338 kts | 252° |
| 2026-04-28 11:43 | 29.81347 | 108.15525 | 16261 ft | 338 kts | 252° |
| 2026-04-28 11:43 | 29.80654 | 108.12943 | 16010 ft | 338 kts | 252° |
| 2026-04-28 11:43 | 29.79960 | 108.10358 | 15766 ft | 337 kts | 252° |
| 2026-04-28 11:43 | 29.79267 | 108.07783 | 15537 ft | 337 kts | 252° |
| 2026-04-28 11:44 | 29.78573 | 108.05212 | 15294 ft | 336 kts | 252° |
| 2026-04-28 11:44 | 29.77889 | 108.02681 | 15054 ft | 336 kts | 252° |
| 2026-04-28 11:44 | 29.77195 | 108.00119 | 14815 ft | 335 kts | 252° |
| 2026-04-28 11:44 | 29.76503 | 107.97561 | 14578 ft | 335 kts | 252° |
| 2026-04-28 11:45 | 29.75818 | 107.95005 | 14350 ft | 333 kts | 252° |
| 2026-04-28 11:45 | 29.75162 | 107.92444 | 14120 ft | 334 kts | 253° |
| 2026-04-28 11:45 | 29.74523 | 107.89874 | 13889 ft | 334 kts | 253° |
| 2026-04-28 11:45 | 29.73895 | 107.87311 | 13625 ft | 333 kts | 253° |
| 2026-04-28 11:46 | 29.73268 | 107.84744 | 13350 ft | 334 kts | 253° |
| 2026-04-28 11:46 | 29.72636 | 107.82168 | 13092 ft | 335 kts | 253° |
| 2026-04-28 11:46 | 29.72004 | 107.79597 | 12834 ft | 334 kts | 253° |
| 2026-04-28 11:46 | 29.71372 | 107.77029 | 12571 ft | 333 kts | 253° |
| 2026-04-28 11:47 | 29.70742 | 107.74477 | 12319 ft | 331 kts | 253° |
| 2026-04-28 11:47 | 29.70113 | 107.71930 | 12084 ft | 331 kts | 253° |
| 2026-04-28 11:47 | 29.69485 | 107.69386 | 11886 ft | 330 kts | 253° |
| 2026-04-28 11:47 | 29.68857 | 107.66850 | 11866 ft | 330 kts | 253° |
| 2026-04-28 11:48 | 29.68226 | 107.64306 | 11872 ft | 331 kts | 253° |
| 2026-04-28 11:48 | 29.67592 | 107.61761 | 11871 ft | 331 kts | 253° |
| 2026-04-28 11:48 | 29.66960 | 107.59223 | 11869 ft | 330 kts | 253° |
| 2026-04-28 11:48 | 29.66327 | 107.56680 | 11865 ft | 330 kts | 253° |
| 2026-04-28 11:49 | 29.65695 | 107.54143 | 11866 ft | 331 kts | 253° |
| 2026-04-28 11:49 | 29.65061 | 107.51605 | 11867 ft | 330 kts | 253° |
| 2026-04-28 11:49 | 29.64425 | 107.49068 | 11869 ft | 330 kts | 253° |
| 2026-04-28 11:49 | 29.63788 | 107.46526 | 11868 ft | 330 kts | 253° |
| 2026-04-28 11:50 | 29.63157 | 107.43990 | 11826 ft | 331 kts | 253° |
| 2026-04-28 11:50 | 29.62526 | 107.41456 | 11567 ft | 327 kts | 253° |
| 2026-04-28 11:50 | 29.61907 | 107.38983 | 11329 ft | 318 kts | 254° |
| 2026-04-28 11:50 | 29.61301 | 107.36571 | 11087 ft | 310 kts | 254° |
| 2026-04-28 11:51 | 29.60709 | 107.34224 | 10843 ft | 302 kts | 254° |
| 2026-04-28 11:51 | 29.60130 | 107.31933 | 10604 ft | 295 kts | 254° |
| 2026-04-28 11:51 | 29.59564 | 107.29691 | 10368 ft | 289 kts | 254° |
| 2026-04-28 11:51 | 29.59013 | 107.27501 | 10128 ft | 282 kts | 254° |
| 2026-04-28 11:52 | 29.58475 | 107.25356 | 9880 ft | 277 kts | 254° |
| 2026-04-28 11:52 | 29.57943 | 107.23237 | 9635 ft | 275 kts | 254° |
| 2026-04-28 11:52 | 29.57414 | 107.21132 | 9382 ft | 273 kts | 254° |
| 2026-04-28 11:52 | 29.56888 | 107.19045 | 9113 ft | 272 kts | 254° |
| 2026-04-28 11:53 | 29.56360 | 107.16958 | 8854 ft | 271 kts | 254° |
| 2026-04-28 11:53 | 29.55833 | 107.14884 | 8606 ft | 270 kts | 254° |
| 2026-04-28 11:53 | 29.55308 | 107.12822 | 8348 ft | 268 kts | 254° |
| 2026-04-28 11:53 | 29.54786 | 107.10763 | 8099 ft | 269 kts | 254° |
| 2026-04-28 11:54 | 29.54274 | 107.08737 | 7857 ft | 267 kts | 254° |
| 2026-04-28 11:54 | 29.53758 | 107.06694 | 7611 ft | 266 kts | 254° |
| 2026-04-28 11:54 | 29.53240 | 107.04652 | 7362 ft | 266 kts | 254° |
| 2026-04-28 11:54 | 29.52724 | 107.02617 | 7112 ft | 265 kts | 254° |
| 2026-04-28 11:55 | 29.52209 | 107.00591 | 6954 ft | 264 kts | 254° |
| 2026-04-28 11:55 | 29.51690 | 106.98549 | 6926 ft | 263 kts | 254° |
| 2026-04-28 11:55 | 29.51183 | 106.96555 | 6925 ft | 263 kts | 255° |
| 2026-04-28 11:55 | 29.50670 | 106.94538 | 6926 ft | 263 kts | 254° |
| 2026-04-28 11:56 | 29.50323 | 106.93178 | 6932 ft | 263 kts | 254° |
| 2026-04-28 11:56 | 29.49641 | 106.90506 | 6934 ft | 264 kts | 254° |
| 2026-04-28 11:56 | 29.49125 | 106.88489 | 6928 ft | 259 kts | 254° |
| 2026-04-28 11:56 | 29.48635 | 106.86564 | 6926 ft | 245 kts | 254° |
| 2026-04-28 11:57 | 29.48160 | 106.84700 | 6930 ft | 242 kts | 254° |
| 2026-04-28 11:57 | 29.47841 | 106.83447 | 6924 ft | 243 kts | 254° |
| 2026-04-28 11:57 | 29.47368 | 106.81591 | 6677 ft | 240 kts | 254° |
| 2026-04-28 11:57 | 29.46904 | 106.79772 | 6430 ft | 235 kts | 254° |
| 2026-04-28 11:58 | 29.46446 | 106.77984 | 6172 ft | 232 kts | 254° |
| 2026-04-28 11:58 | 29.45993 | 106.76223 | 5984 ft | 226 kts | 254° |
| 2026-04-28 11:58 | 29.45557 | 106.74530 | 5949 ft | 216 kts | 255° |
| 2026-04-28 11:58 | 29.45131 | 106.72874 | 5939 ft | 216 kts | 255° |
| 2026-04-28 11:59 | 29.44707 | 106.71222 | 5929 ft | 216 kts | 255° |
| 2026-04-28 11:59 | 29.44350 | 106.69549 | 5897 ft | 217 kts | 265° |
| 2026-04-28 11:59 | 29.44383 | 106.67829 | 5769 ft | 216 kts | 281° |
| 2026-04-28 11:59 | 29.44776 | 106.66194 | 5615 ft | 216 kts | 289° |
| 2026-04-28 12:00 | 29.45211 | 106.64569 | 5371 ft | 209 kts | 289° |
| 2026-04-28 12:00 | 29.45729 | 106.63080 | 5117 ft | 195 kts | 308° |
| 2026-04-28 12:00 | 29.46792 | 106.62226 | 4951 ft | 187 kts | 341° |
| 2026-04-28 12:00 | 29.48038 | 106.61809 | 4900 ft | 186 kts | 346° |
| 2026-04-28 12:01 | 29.49290 | 106.61450 | 4905 ft | 186 kts | 346° |
| 2026-04-28 12:01 | 29.50551 | 106.61095 | 4906 ft | 187 kts | 346° |
| 2026-04-28 12:01 | 29.51816 | 106.60746 | 4910 ft | 187 kts | 347° |
| 2026-04-28 12:01 | 29.53085 | 106.60439 | 4901 ft | 186 kts | 355° |
| 2026-04-28 12:02 | 29.54355 | 106.60654 | 4871 ft | 186 kts | 15° |
| 2026-04-28 12:02 | 29.55590 | 106.61084 | 4671 ft | 186 kts | 16° |
| 2026-04-28 12:02 | 29.56828 | 106.61514 | 4436 ft | 186 kts | 16° |
| 2026-04-28 12:02 | 29.58063 | 106.61941 | 4191 ft | 185 kts | 16° |
| 2026-04-28 12:03 | 29.59292 | 106.62365 | 3947 ft | 184 kts | 16° |
| 2026-04-28 12:03 | 29.60511 | 106.62786 | 3709 ft | 182 kts | 15° |
| 2026-04-28 12:03 | 29.61695 | 106.63195 | 3461 ft | 171 kts | 15° |
| 2026-04-28 12:03 | 29.62810 | 106.63579 | 3249 ft | 164 kts | 16° |
| 2026-04-28 12:04 | 29.63875 | 106.63947 | 3054 ft | 152 kts | 16° |
| 2026-04-28 12:04 | 29.64840 | 106.64280 | 2837 ft | 140 kts | 15° |
| 2026-04-28 12:04 | 29.65755 | 106.64596 | 2656 ft | 136 kts | 16° |
| 2026-04-28 12:04 | 29.66655 | 106.64906 | 2477 ft | 135 kts | 14° |
| 2026-04-28 12:05 | 29.67555 | 106.65217 | 2302 ft | 135 kts | 14° |
| 2026-04-28 12:05 | 29.68454 | 106.65528 | 2112 ft | 135 kts | 15° |
| 2026-04-28 12:05 | 29.69351 | 106.65838 | 1944 ft | 135 kts | 15° |
| 2026-04-28 12:05 | 29.70253 | 106.66149 | 1731 ft | 137 kts | 15° |
| 2026-04-28 12:06 | 29.71156 | 106.66470 | 1588 ft | 135 kts | 15° |
| 2026-04-28 12:06 | 29.72060 | 106.66784 | 1386 ft | 135 kts | 15° |
| 2026-04-28 12:06 | 29.72895 | 106.67071 | 1333 ft | 101 kts | 18° |
| 2026-04-28 12:06 | 29.73298 | 106.67208 | 1330 ft | 28 kts | 16° |
| 2026-04-28 12:07 | 29.73379 | 106.67235 | 1330 ft | 5 kts | 16° |
| 2026-04-28 12:07 | 29.73405 | 106.67244 | 1330 ft | 3 kts | 18° |
| 2026-04-28 12:07 | 29.73436 | 106.67256 | 1330 ft | 6 kts | 18° |
| 2026-04-28 12:07 | 29.73491 | 106.67273 | 1330 ft | 10 kts | 10° |
| 2026-04-28 12:08 | 29.73574 | 106.67278 | 1329 ft | 14 kts | 358° |
| 2026-04-28 12:08 | 29.73682 | 106.67264 | 1328 ft | 17 kts | 353° |
| 2026-04-28 12:08 | 29.73818 | 106.67240 | 1325 ft | 22 kts | 351° |
| 2026-04-28 12:08 | 29.73959 | 106.67213 | 1321 ft | 11 kts | 344° |
| 2026-04-28 12:09 | 29.73987 | 106.67158 | 1319 ft | 6 kts | 284° |
| 2026-04-28 12:09 | 29.73997 | 106.67116 | 1318 ft | 5 kts | 289° |
| 2026-04-28 12:09 | 29.74008 | 106.67075 | 1318 ft | 6 kts | 287° |
| 2026-04-28 12:09 | 29.74020 | 106.67030 | 1318 ft | 6 kts | 287° |
| 2026-04-28 12:10 | 29.74033 | 106.66982 | 1317 ft | 7 kts | 287° |
| 2026-04-28 12:10 | 29.74047 | 106.66928 | 1317 ft | 9 kts | 287° |
| 2026-04-28 12:10 | 29.74067 | 106.66853 | 1318 ft | 11 kts | 287° |
| 2026-04-28 12:10 | 29.74082 | 106.66773 | 1319 ft | 10 kts | 259° |
| 2026-04-28 12:11 | 29.74021 | 106.66728 | 1320 ft | 12 kts | 196° |
| 2026-04-28 12:11 | 29.73933 | 106.66698 | 1321 ft | 15 kts | 197° |
| 2026-04-28 12:11 | 29.73825 | 106.66661 | 1324 ft | 18 kts | 197° |
| 2026-04-28 12:11 | 29.73708 | 106.66621 | 1324 ft | 18 kts | 196° |
| 2026-04-28 12:12 | 29.73606 | 106.66587 | 1328 ft | 13 kts | 196° |
| 2026-04-28 12:12 | 29.73527 | 106.66560 | 1324 ft | 11 kts | 196° |
| 2026-04-28 12:12 | 29.73448 | 106.66533 | 1325 ft | 12 kts | 197° |
| 2026-04-28 12:12 | 29.73361 | 106.66503 | 1325 ft | 13 kts | 197° |
| 2026-04-28 12:13 | 29.73270 | 106.66471 | 1326 ft | 14 kts | 197° |
| 2026-04-28 12:13 | 29.73183 | 106.66441 | 1327 ft | 10 kts | 197° |
| 2026-04-28 12:13 | 29.73134 | 106.66401 | 1328 ft | 9 kts | 247° |
| 2026-04-28 12:13 | 29.73144 | 106.66332 | 1329 ft | 9 kts | 283° |
| 2026-04-28 12:14 | 29.73130 | 106.66266 | 1330 ft | 8 kts | 234° |
| 2026-04-28 12:14 | 29.73094 | 106.66227 | 1331 ft | 7 kts | 243° |
| 2026-04-28 12:14 | 29.73080 | 106.66175 | 1333 ft | 7 kts | 250° |
| 2026-04-28 12:14 | 29.73046 | 106.66142 | 1333 ft | 7 kts | 201° |
| 2026-04-28 12:15 | 29.72999 | 106.66136 | 1333 ft | 7 kts | 173° |
| 2026-04-28 12:15 | 29.72952 | 106.66122 | 1334 ft | 7 kts | 213° |
| 2026-04-28 12:15 | 29.72928 | 106.66076 | 1335 ft | 7 kts | 243° |
| 2026-04-28 12:15 | 29.72902 | 106.66034 | 1336 ft | 6 kts | 234° |
| 2026-04-28 12:16 | 29.72887 | 106.66009 | 1336 ft | 2 kts | 234° |
| 2026-04-28 12:16 | 29.72883 | 106.66004 | 1340 ft | 0 kts | 234° |
| 2026-04-28 12:16 | 29.72883 | 106.66003 | 1340 ft | 0 kts | 234° |